Time;durP1;ratioP1;P1;durP2;ratioP2;P2;SDS_P1;SDS_P2;PMS_P1;PMS_P2;Temp;Humidity;BMP_temperature;BMP_pressure;BME280_temperature;BME280_humidity;BME280_pressure;Samples;Min_cycle;Max_cycle;Signal;HPM_P1;HPM_P2
2022/09/29 00:00:08;;;;;;;16.30;15.40;;;;;;;14.75;100.00;99774.50;5054728;28;20503;-74
2022/09/29 00:02:33;;;;;;;16.88;15.88;;;;;;;14.85;100.00;99771.34;5053610;28;20029;-73
2022/09/29 00:04:58;;;;;;;15.65;14.85;;;;;;;14.85;100.00;99772.16;5042437;28;20473;-74
2022/09/29 00:07:24;;;;;;;16.10;15.20;;;;;;;14.82;100.00;99769.91;5056070;28;20829;-74
2022/09/29 00:09:49;;;;;;;16.02;15.15;;;;;;;14.64;100.00;99776.03;5069881;28;20493;-73
2022/09/29 00:12:15;;;;;;;16.67;15.68;;;;;;;14.76;100.00;99775.31;5043947;28;20511;-73
2022/09/29 00:14:40;;;;;;;15.50;14.70;;;;;;;14.79;100.00;99759.69;5052750;28;20025;-72
2022/09/29 00:17:06;;;;;;;16.20;15.30;;;;;;;14.74;100.00;99756.03;5054202;28;20028;-73
2022/09/29 00:19:32;;;;;;;16.10;15.20;;;;;;;14.83;100.00;99762.69;5036837;28;20017;-72
2022/09/29 00:21:58;;;;;;;16.00;15.10;;;;;;;14.82;100.00;99761.88;5042077;28;20069;-73
2022/09/29 00:24:23;;;;;;;16.52;15.60;;;;;;;14.84;100.00;99762.50;5054570;28;20444;-72
2022/09/29 00:26:49;;;;;;;15.88;15.07;;;;;;;14.47;100.00;99763.44;5053935;28;20366;-72
2022/09/29 00:29:14;;;;;;;16.27;15.38;;;;;;;14.53;100.00;99765.25;5053082;28;20075;-72
2022/09/29 00:31:40;;;;;;;16.33;15.43;;;;;;;14.62;100.00;99762.09;5054205;28;20036;-73
2022/09/29 00:34:05;;;;;;;15.77;14.98;;;;;;;14.67;100.00;99753.41;5054449;28;20025;-73
2022/09/29 00:36:31;;;;;;;16.85;15.85;;;;;;;14.46;100.00;99759.97;5054696;28;20021;-73
2022/09/29 00:38:57;;;;;;;16.10;15.20;;;;;;;14.51;100.00;99751.31;5054442;28;20071;-74
2022/09/29 00:41:28;;;;;;;16.13;15.23;;;;;;;14.50;100.00;99747.84;5049455;28;20070;-73
2022/09/29 00:44:26;;;;;;;16.00;15.18;;;;;;;14.61;100.00;99763.13;5065065;28;20024;-74
2022/09/29 00:47:00;;;;;;;15.63;14.82;;;;;;;14.54;100.00;99743.72;5041247;28;20025;-73
2022/09/29 00:49:43;;;;;;;15.60;14.80;;;;;;;14.48;100.00;99757.91;5053056;28;20076;-73
2022/09/29 00:52:29;;;;;;;16.10;15.20;;;;;;;14.53;100.00;99746.56;5053482;28;20032;-72
2022/09/29 00:55:03;;;;;;;15.65;14.85;;;;;;;14.48;100.00;99744.56;5049327;28;20052;-74
2022/09/29 00:57:35;;;;;;;15.57;14.77;;;;;;;14.58;100.00;99744.88;5053792;28;20089;-73
2022/09/29 01:00:09;;;;;;;15.70;14.90;;;;;;;14.54;100.00;99742.84;5065721;28;20076;-73
2022/09/29 01:02:39;;;;;;;16.73;15.73;;;;;;;14.46;100.00;99754.63;5038420;28;20112;-74
2022/09/29 01:05:11;;;;;;;16.35;15.35;;;;;;;14.51;100.00;99749.47;5042939;28;20558;-73
2022/09/29 01:07:37;;;;;;;15.60;14.77;;;;;;;14.52;100.00;99742.28;5052899;28;20063;-74
2022/09/29 01:10:05;;;;;;;15.50;14.70;;;;;;;14.59;100.00;99751.84;5054276;28;20488;-74
2022/09/29 01:12:31;;;;;;;16.00;15.10;;;;;;;14.63;100.00;99749.56;5051463;28;20037;-73
2022/09/29 01:14:57;;;;;;;15.85;14.98;;;;;;;14.58;100.00;99750.22;5043603;28;20025;-74
2022/09/29 01:17:23;;;;;;;16.00;15.10;;;;;;;14.63;100.00;99739.72;5064171;28;20025;-73
2022/09/29 01:20:06;;;;;;;15.48;14.68;;;;;;;14.71;100.00;99748.47;5039013;28;20037;-73
2022/09/29 01:22:59;;;;;;;15.88;15.05;;;;;;;14.58;100.00;99741.41;5048729;28;20025;-73
2022/09/29 01:25:43;;;;;;;15.50;14.70;;;;;;;14.27;100.00;99744.94;5050222;28;20040;-74
2022/09/29 01:28:45;;;;;;;15.90;15.00;;;;;;;14.22;100.00;99747.41;5047673;28;20028;-74
2022/09/29 01:31:27;;;;;;;15.60;14.80;;;;;;;14.42;100.00;99748.09;5053927;28;20032;-74
2022/09/29 01:34:01;;;;;;;16.35;15.45;;;;;;;14.41;100.00;99745.63;5046098;28;20033;-74
2022/09/29 01:36:44;;;;;;;15.65;14.85;;;;;;;14.31;100.00;99743.44;5053073;28;20017;-74
2022/09/29 01:39:18;;;;;;;15.98;15.15;;;;;;;14.24;100.00;99756.84;5055004;28;20033;-74
2022/09/29 01:41:46;;;;;;;15.90;15.10;;;;;;;14.25;100.00;99753.16;5057409;28;20029;-74
2022/09/29 01:44:35;;;;;;;15.60;14.80;;;;;;;14.32;100.00;99756.59;5055401;28;20059;-74
2022/09/29 01:47:09;;;;;;;16.25;15.35;;;;;;;14.14;100.00;99758.38;5042895;28;20037;-75
2022/09/29 01:49:40;;;;;;;16.15;15.25;;;;;;;14.16;100.00;99753.63;5054980;28;20187;-74
2022/09/29 01:52:12;;;;;;;15.57;14.77;;;;;;;14.02;100.00;99745.72;5050157;28;20024;-74
2022/09/29 01:54:53;;;;;;;16.40;15.50;;;;;;;14.14;100.00;99755.69;5054577;28;20452;-73
2022/09/29 01:57:30;;;;;;;15.45;14.65;;;;;;;14.11;100.00;99754.28;5054863;28;20056;-74
2022/09/29 02:00:10;;;;;;;16.60;15.70;;;;;;;14.19;100.00;99762.03;5051924;28;20016;-74
2022/09/29 02:02:59;;;;;;;15.80;15.00;;;;;;;14.14;100.00;99753.03;5051651;28;20025;-72
2022/09/29 02:05:24;;;;;;;16.10;15.27;;;;;;;14.13;100.00;99746.06;5039662;28;20099;-72
2022/09/29 02:07:56;;;;;;;15.93;15.13;;;;;;;14.14;100.00;99748.50;5054181;28;20032;-74
2022/09/29 02:10:31;;;;;;;15.80;15.00;;;;;;;14.08;100.00;99747.53;5053879;28;20033;-73
2022/09/29 02:13:00;;;;;;;16.90;15.90;;;;;;;14.17;100.00;99755.25;5054375;28;20025;-73
2022/09/29 02:15:29;;;;;;;16.88;15.88;;;;;;;14.14;100.00;99759.19;5039125;28;20028;-72
2022/09/29 02:18:00;;;;;;;16.20;15.30;;;;;;;14.05;100.00;99755.16;5052395;28;20036;-73
2022/09/29 02:20:25;;;;;;;16.92;15.93;;;;;;;13.92;100.00;99747.22;5051829;28;20451;-74
2022/09/29 02:22:51;;;;;;;16.60;15.70;;;;;;;14.12;100.00;99765.78;5053047;28;20070;-73
2022/09/29 02:25:18;;;;;;;16.75;15.82;;;;;;;13.97;100.00;99756.22;5044961;28;20033;-73
2022/09/29 02:27:46;;;;;;;16.90;16.00;;;;;;;13.79;100.00;99759.59;5052149;28;20111;-72
2022/09/29 02:30:12;;;;;;;16.73;15.82;;;;;;;13.55;100.00;99755.84;5052490;28;20082;-73
2022/09/29 02:32:38;;;;;;;17.17;16.27;;;;;;;13.68;100.00;99749.63;5052253;28;20029;-76
2022/09/29 02:35:07;;;;;;;17.42;16.42;;;;;;;13.76;100.00;99749.38;5052025;28;20056;-74
2022/09/29 02:38:11;;;;;;;18.45;17.35;;;;;;;13.67;100.00;99747.19;5049842;28;20040;-72
2022/09/29 02:41:19;;;;;;;18.35;17.25;;;;;;;13.72;100.00;99750.81;5052742;28;20562;-74
2022/09/29 02:44:09;;;;;;;17.45;16.45;;;;;;;13.70;100.00;99741.41;5042074;28;20079;-73
2022/09/29 02:46:56;;;;;;;17.50;16.50;;;;;;;13.68;100.00;99744.31;5049641;28;20484;-73
2022/09/29 02:49:39;;;;;;;17.60;16.60;;;;;;;13.62;100.00;99750.50;5051927;28;20575;-72
2022/09/29 02:52:16;;;;;;;17.67;16.67;;;;;;;13.55;100.00;99747.03;5051941;28;20043;-73
2022/09/29 02:54:56;;;;;;;16.60;15.70;;;;;;;13.55;100.00;99753.19;5051453;28;20115;-72
2022/09/29 02:57:32;;;;;;;17.20;16.20;;;;;;;13.64;100.00;99753.75;5049913;28;20029;-74
2022/09/29 03:00:09;;;;;;;16.55;15.65;;;;;;;13.59;100.00;99753.59;5051276;28;20048;-72
2022/09/29 03:02:37;;;;;;;16.77;15.88;;;;;;;13.59;100.00;99752.75;5051011;28;20029;-72
2022/09/29 03:05:09;;;;;;;17.33;16.27;;;;;;;13.63;100.00;99745.97;5052434;28;20025;-75
2022/09/29 03:07:38;;;;;;;16.88;15.93;;;;;;;13.28;100.00;99743.66;5053983;28;20481;-73
2022/09/29 03:10:06;;;;;;;17.23;16.23;;;;;;;13.30;100.00;99744.31;5051431;28;20056;-74
2022/09/29 03:12:33;;;;;;;17.08;16.13;;;;;;;13.45;100.00;99744.84;5043176;28;20017;-73
2022/09/29 03:14:58;;;;;;;17.98;16.88;;;;;;;13.46;100.00;99743.00;5049794;28;20025;-73
2022/09/29 03:17:24;;;;;;;17.27;16.27;;;;;;;13.41;100.00;99746.28;5050407;28;20032;-73
2022/09/29 03:19:49;;;;;;;17.67;16.58;;;;;;;13.28;100.00;99749.81;5050686;28;20049;-73
2022/09/29 03:22:15;;;;;;;17.25;16.25;;;;;;;13.21;100.00;99746.34;5038967;28;20033;-72
2022/09/29 03:24:40;;;;;;;18.08;16.98;;;;;;;13.15;100.00;99744.53;5054077;28;20021;-72
2022/09/29 03:27:08;;;;;;;17.77;16.77;;;;;;;12.98;100.00;99728.19;5054789;28;20546;-73
2022/09/29 03:29:35;;;;;;;18.38;17.38;;;;;;;13.06;100.00;99750.28;5055502;28;20020;-73
2022/09/29 03:32:01;;;;;;;20.08;18.88;;;;;;;13.14;100.00;99737.53;5047434;28;20037;-73
2022/09/29 03:34:27;;;;;;;19.75;18.58;;;;;;;13.16;100.00;99746.16;5061200;28;20054;-72
2022/09/29 03:36:53;;;;;;;18.63;17.55;;;;;;;13.07;100.00;99736.75;5048698;28;20378;-72
2022/09/29 03:39:19;;;;;;;18.30;17.30;;;;;;;13.10;100.00;99740.84;5039959;28;20031;-74
2022/09/29 03:41:45;;;;;;;19.67;18.48;;;;;;;12.73;100.00;99738.69;5047334;28;20017;-75
2022/09/29 03:44:10;;;;;;;20.08;18.88;;;;;;;12.90;100.00;99747.03;5052664;28;20025;-74
2022/09/29 03:46:36;;;;;;;20.30;19.10;;;;;;;12.91;100.00;99754.00;5054497;28;20029;-74
2022/09/29 03:49:01;;;;;;;20.45;19.05;;;;;;;12.95;100.00;99751.75;5053752;28;20152;-66
2022/09/29 03:51:27;;;;;;;19.77;18.58;;;;;;;12.98;100.00;99759.31;5050339;28;20032;-67
2022/09/29 03:53:53;;;;;;;19.70;18.50;;;;;;;12.92;100.00;99752.97;5054638;28;20021;-67
2022/09/29 03:56:19;;;;;;;18.88;17.67;;;;;;;12.99;100.00;99761.75;5054291;28;20452;-66
2022/09/29 03:58:44;;;;;;;16.83;15.85;;;;;;;13.01;100.00;99756.25;5054330;28;20032;-66
2022/09/29 04:01:10;;;;;;;18.08;16.95;;;;;;;13.08;100.00;99753.56;5052803;28;20028;-66
2022/09/29 04:03:35;;;;;;;16.70;15.80;;;;;;;13.04;100.00;99763.81;5054804;28;20052;-66
2022/09/29 04:06:01;;;;;;;17.27;16.27;;;;;;;12.91;100.00;99737.22;5049814;28;20033;-67
2022/09/29 04:08:26;;;;;;;17.48;16.42;;;;;;;13.08;100.00;99758.91;5046571;28;20036;-67
2022/09/29 04:10:52;;;;;;;19.02;17.73;;;;;;;13.23;100.00;99760.31;5047485;28;20041;-69
2022/09/29 04:13:17;;;;;;;17.17;16.15;;;;;;;13.34;100.00;99758.81;5034926;28;20053;-72
2022/09/29 04:16:35;;;;;;;17.90;16.80;;;;;;;13.40;100.00;99767.81;5044345;28;20025;-71
2022/09/29 04:19:02;;;;;;;17.45;16.35;;;;;;;13.34;100.00;99766.00;5040466;28;20025;-70
2022/09/29 04:21:28;;;;;;;17.23;16.23;;;;;;;13.39;100.00;99750.19;5047426;28;20049;-71
2022/09/29 04:23:53;;;;;;;18.30;17.10;;;;;;;13.45;100.00;99765.34;5067789;28;20035;-70
2022/09/29 04:26:22;;;;;;;17.10;16.10;;;;;;;13.31;100.00;99753.91;5051689;28;20392;-71
2022/09/29 04:28:47;;;;;;;17.83;16.70;;;;;;;13.53;100.00;99752.59;5050825;28;20104;-72
2022/09/29 04:31:13;;;;;;;16.80;15.80;;;;;;;13.43;100.00;99741.56;5052630;28;20135;-71
2022/09/29 04:33:40;;;;;;;17.30;16.20;;;;;;;13.71;100.00;99741.19;5051534;28;20481;-71
2022/09/29 04:36:06;;;;;;;16.98;15.98;;;;;;;13.94;100.00;99748.66;5049594;28;20036;-71
2022/09/29 04:38:31;;;;;;;17.05;16.00;;;;;;;14.33;100.00;99754.72;5047160;28;20029;-71
2022/09/29 04:40:57;;;;;;;16.67;15.68;;;;;;;14.86;100.00;99752.41;5046873;28;20013;-70
2022/09/29 04:43:23;;;;;;;16.45;15.45;;;;;;;15.73;100.00;99749.53;5050200;28;20060;-71
2022/09/29 04:45:48;;;;;;;16.13;15.13;;;;;;;16.68;100.00;99752.16;5051700;28;20037;-71
2022/09/29 04:48:14;;;;;;;16.35;15.35;;;;;;;17.77;100.00;99752.25;5054489;28;20413;-71
2022/09/29 04:50:40;;;;;;;15.98;15.07;;;;;;;19.48;100.00;99745.41;5048247;28;20029;-71
2022/09/29 04:53:06;;;;;;;15.52;14.63;;;;;;;21.42;100.00;99751.22;5047777;28;20033;-70
2022/09/29 04:55:32;;;;;;;14.23;13.52;;;;;;;21.28;100.00;99746.56;5054565;28;20508;-72
2022/09/29 04:57:57;;;;;;;15.23;14.40;;;;;;;20.34;100.00;99750.81;5053653;28;20053;-71
2022/09/29 05:00:23;;;;;;;16.02;15.07;;;;;;;21.88;100.00;99754.00;5059678;28;20051;-71
2022/09/29 05:02:48;;;;;;;14.75;13.95;;;;;;;22.10;100.00;99759.19;5050385;28;20044;-71
2022/09/29 05:05:14;;;;;;;14.70;13.90;;;;;;;21.97;100.00;99744.31;5043126;28;20025;-71
2022/09/29 05:07:40;;;;;;;15.02;14.23;;;;;;;23.04;100.00;99748.84;5048206;28;20557;-70
2022/09/29 05:10:07;;;;;;;14.88;14.07;;;;;;;22.65;100.00;99746.75;5038718;28;20066;-69
2022/09/29 05:12:33;;;;;;;15.25;14.45;;;;;;;22.70;100.00;99749.44;5049028;28;20086;-68
2022/09/29 05:14:58;;;;;;;14.30;13.60;;;;;;;23.50;100.00;99751.34;5042127;28;20084;-67
2022/09/29 05:17:24;;;;;;;15.30;14.50;;;;;;;23.44;100.00;99766.81;5052096;28;20025;-69
2022/09/29 05:19:49;;;;;;;14.90;14.10;;;;;;;24.23;100.00;99754.94;5039579;28;20034;-68
2022/09/29 05:22:19;;;;;;;14.60;13.90;;;;;;;25.10;100.00;99758.75;5035713;28;20040;-69
2022/09/29 05:24:44;;;;;;;15.23;14.43;;;;;;;23.01;100.00;99763.72;5050630;28;20503;-70
2022/09/29 05:27:10;;;;;;;14.45;13.75;;;;;;;20.81;100.00;99763.59;5051737;28;20060;-68
2022/09/29 05:29:35;;;;;;;14.77;14.00;;;;;;;21.71;100.00;99766.94;5051749;28;20389;-68
2022/09/29 05:32:01;;;;;;;15.77;14.90;;;;;;;22.73;100.00;99769.72;5051858;28;20032;-68
2022/09/29 05:34:26;;;;;;;15.25;14.45;;;;;;;24.60;100.00;99775.25;5046731;28;20033;-68
2022/09/29 05:36:52;;;;;;;15.23;14.43;;;;;;;26.15;96.21;99766.56;5052327;28;20025;-68
2022/09/29 05:39:19;;;;;;;15.50;14.60;;;;;;;25.92;98.15;99770.16;5053114;28;20029;-68
2022/09/29 05:41:45;;;;;;;14.07;13.38;;;;;;;26.43;93.22;99770.19;5051514;28;20032;-70
2022/09/29 05:44:10;;;;;;;14.90;14.10;;;;;;;26.99;91.56;99766.47;5047386;28;20504;-70
2022/09/29 05:46:36;;;;;;;15.35;14.50;;;;;;;27.21;87.88;99763.06;5049589;28;20120;-70
2022/09/29 05:49:01;;;;;;;15.20;14.40;;;;;;;27.93;85.02;99767.78;5042803;28;20118;-68
2022/09/29 05:51:27;;;;;;;14.30;13.60;;;;;;;29.05;74.02;99770.41;5035017;28;20411;-71
2022/09/29 05:53:53;;;;;;;14.20;13.50;;;;;;;29.33;69.10;99759.25;5050957;28;20020;-70
2022/09/29 05:56:24;;;;;;;14.43;13.73;;;;;;;29.21;68.40;99754.38;5052486;28;20096;-70
2022/09/29 05:58:50;;;;;;;14.73;13.93;;;;;;;30.45;65.92;99764.75;5052549;28;20021;-70
2022/09/29 06:01:19;;;;;;;14.18;13.48;;;;;;;29.63;67.71;99760.28;5051191;28;20032;-69
2022/09/29 06:03:45;;;;;;;14.32;13.63;;;;;;;31.33;59.54;99761.38;5051765;28;20028;-70
2022/09/29 06:06:14;;;;;;;13.35;12.75;;;;;;;30.54;64.52;99751.84;5052615;28;20029;-70
2022/09/29 06:08:40;;;;;;;13.80;13.10;;;;;;;29.57;62.97;99747.91;5052000;28;20370;-70
2022/09/29 06:11:06;;;;;;;14.30;13.60;;;;;;;26.49;87.67;99734.75;5052156;28;20037;-70
2022/09/29 06:13:33;;;;;;;13.30;12.70;;;;;;;25.84;91.57;99725.44;5052098;28;20029;-69
2022/09/29 06:15:59;;;;;;;13.52;12.93;;;;;;;26.21;88.47;99717.53;5052192;28;20021;-70
2022/09/29 06:18:25;;;;;;;13.90;13.20;;;;;;;26.68;88.10;99732.78;5049498;28;20028;-69
2022/09/29 06:20:50;;;;;;;13.70;13.00;;;;;;;25.03;99.49;99731.94;5050764;28;20424;-71
2022/09/29 06:23:15;;;;;;;14.63;13.82;;;;;;;24.29;100.00;99733.22;5051989;28;20028;-71
2022/09/29 06:25:41;;;;;;;14.70;13.98;;;;;;;25.18;100.00;99737.19;5051702;28;20021;-70
2022/09/29 06:28:06;;;;;;;14.00;13.30;;;;;;;27.96;86.67;99745.34;5051793;28;20435;-70
2022/09/29 06:30:32;;;;;;;14.02;13.32;;;;;;;24.70;93.71;99742.63;5051983;28;20031;-70
2022/09/29 06:32:57;;;;;;;13.50;12.82;;;;;;;22.69;100.00;99739.69;5051805;28;20035;-70
2022/09/29 06:38:07;;;;;;;14.18;13.48;;;;;;;24.79;100.00;99753.66;5043166;28;20138;-71
2022/09/29 06:40:32;;;;;;;14.02;13.32;;;;;;;24.22;100.00;99752.50;5051778;28;20134;-69
2022/09/29 06:42:58;;;;;;;14.30;13.60;;;;;;;27.54;96.55;99752.00;5051606;28;20108;-71
2022/09/29 06:45:23;;;;;;;13.68;12.98;;;;;;;26.18;98.21;99751.56;5051571;28;20052;-70
2022/09/29 06:47:49;;;;;;;13.70;13.02;;;;;;;28.69;85.99;99747.91;5051331;28;20033;-70
2022/09/29 06:50:14;;;;;;;13.57;12.98;;;;;;;31.81;69.85;99743.66;5051778;28;20024;-70
2022/09/29 06:52:40;;;;;;;13.82;13.13;;;;;;;30.51;70.26;99748.97;5050303;28;20031;-71
2022/09/29 06:55:06;;;;;;;14.25;13.55;;;;;;;27.36;78.71;99751.03;5051666;28;20035;-70
2022/09/29 06:57:31;;;;;;;14.10;13.40;;;;;;;29.74;87.28;99753.38;5051551;28;20025;-70
2022/09/29 06:59:57;;;;;;;14.98;14.18;;;;;;;29.93;78.55;99753.06;5044696;28;20090;-70
2022/09/29 07:02:23;;;;;;;13.88;13.18;;;;;;;31.30;70.99;99751.09;5051558;28;20021;-70
2022/09/29 07:04:48;;;;;;;13.50;12.90;;;;;;;27.19;92.99;99759.84;5051634;28;20610;-71
2022/09/29 07:07:14;;;;;;;13.35;12.75;;;;;;;31.97;65.64;99754.81;5051697;28;20100;-71
2022/09/29 07:09:41;;;;;;;13.38;12.77;;;;;;;32.25;60.72;99762.47;5050449;28;20403;-72
2022/09/29 07:12:06;;;;;;;14.20;13.50;;;;;;;32.33;58.56;99762.41;5051164;28;20024;-71
2022/09/29 07:14:32;;;;;;;14.50;13.80;;;;;;;32.89;56.21;99750.97;5050880;28;20082;-71
2022/09/29 07:16:58;;;;;;;14.00;13.30;;;;;;;32.38;56.44;99758.63;5051016;28;20028;-70
2022/09/29 07:19:24;;;;;;;13.40;12.80;;;;;;;31.13;59.99;99747.59;5049590;28;20025;-70
2022/09/29 07:21:50;;;;;;;13.63;13.00;;;;;;;31.15;60.09;99746.16;5049654;28;20036;-71
2022/09/29 07:24:16;;;;;;;13.07;12.48;;;;;;;29.55;66.83;99737.28;5051261;28;20481;-71
2022/09/29 07:26:42;;;;;;;12.77;12.18;;;;;;;27.33;89.95;99732.59;5050360;28;20021;-71
2022/09/29 07:29:08;;;;;;;12.98;12.38;;;;;;;28.75;77.46;99720.16;5050071;28;20036;-70
2022/09/29 07:31:33;;;;;;;12.80;12.20;;;;;;;30.51;69.38;99733.34;5051358;28;20120;-71
2022/09/29 07:33:59;;;;;;;13.20;12.60;;;;;;;32.13;61.32;99744.00;5046280;28;20053;-70
2022/09/29 07:36:24;;;;;;;13.35;12.75;;;;;;;28.52;73.44;99724.06;5031297;28;20017;-71
2022/09/29 07:38:51;;;;;;;13.10;12.50;;;;;;;28.95;82.72;99718.84;5049199;28;20108;-72
2022/09/29 07:41:19;;;;;;;13.10;12.50;;;;;;;31.70;62.52;99727.91;5050984;28;20498;-70
2022/09/29 07:43:45;;;;;;;12.90;12.30;;;;;;;30.41;65.11;99730.97;5050315;28;20033;-70
2022/09/29 07:46:11;;;;;;;12.40;11.80;;;;;;;29.65;69.84;99728.78;5050725;28;20040;-70
2022/09/29 07:48:37;;;;;;;13.20;12.60;;;;;;;29.79;79.68;99725.88;5036962;28;20044;-72
2022/09/29 07:51:06;;;;;;;13.20;12.60;;;;;;;30.96;72.76;99721.91;5051077;28;20369;-70
2022/09/29 07:53:33;;;;;;;13.27;12.68;;;;;;;26.01;93.01;99718.69;5051202;28;20039;-70
2022/09/29 07:56:14;;;;;;;13.55;12.85;;;;;;;27.66;96.63;99718.78;5043337;28;20013;-70
2022/09/29 07:58:41;;;;;;;13.38;12.77;;;;;;;29.93;80.30;99721.03;5049020;28;20028;-70
2022/09/29 08:01:12;;;;;;;14.15;13.45;;;;;;;28.14;86.32;99713.56;5050601;28;20029;-71
2022/09/29 08:03:43;;;;;;;12.73;12.13;;;;;;;29.86;79.17;99715.25;5050088;28;20103;-70
2022/09/29 08:06:10;;;;;;;13.32;12.73;;;;;;;25.43;97.25;99719.78;5051418;28;20017;-71
2022/09/29 08:08:40;;;;;;;13.15;12.55;;;;;;;27.94;91.42;99727.69;5051241;28;20029;-71
2022/09/29 08:11:09;;;;;;;13.60;12.90;;;;;;;29.61;77.90;99730.56;5054762;28;20454;-71
2022/09/29 08:13:35;;;;;;;13.60;12.90;;;;;;;28.97;84.65;99715.78;5054857;28;20037;-71
2022/09/29 08:16:02;;;;;;;13.45;12.85;;;;;;;28.37;87.03;99713.56;5053712;28;20036;-71
2022/09/29 08:18:30;;;;;;;13.23;12.63;;;;;;;25.11;100.00;99708.81;5054139;28;20028;-71
2022/09/29 08:20:55;;;;;;;13.73;13.02;;;;;;;26.66;94.82;99707.75;5054513;28;20177;-71
2022/09/29 08:23:22;;;;;;;13.65;12.95;;;;;;;23.95;100.00;99709.66;5054186;28;20477;-71
2022/09/29 08:25:48;;;;;;;13.88;13.18;;;;;;;26.11;100.00;99703.00;5053868;28;20404;-70
2022/09/29 08:28:14;;;;;;;13.27;12.68;;;;;;;25.52;100.00;99709.88;5054496;28;20028;-70
2022/09/29 08:30:40;;;;;;;13.75;13.05;;;;;;;27.14;98.00;99712.84;5054235;28;20021;-70
2022/09/29 08:33:11;;;;;;;13.80;13.10;;;;;;;28.54;92.37;99700.00;5053556;28;20033;-70
2022/09/29 08:35:37;;;;;;;13.30;12.63;;;;;;;26.62;98.42;99712.22;5053841;28;20021;-69
2022/09/29 08:38:02;;;;;;;13.95;13.25;;;;;;;25.46;100.00;99710.25;5054511;28;20199;-71
2022/09/29 08:40:30;;;;;;;14.00;13.30;;;;;;;25.67;100.00;99710.75;5044180;28;20072;-70
2022/09/29 08:43:04;;;;;;;14.40;13.70;;;;;;;25.59;100.00;99713.03;5049803;28;20107;-70
2022/09/29 08:45:40;;;;;;;13.65;12.95;;;;;;;26.35;100.00;99702.88;5053205;28;20507;-71
2022/09/29 08:48:14;;;;;;;14.15;13.45;;;;;;;24.02;100.00;99717.44;5053008;28;20048;-71
2022/09/29 08:50:45;;;;;;;;;;;;;;;23.44;100.00;99734.34;5053356;28;20111;-71
2022/09/29 08:53:15;;;;;;;14.13;13.43;;;;;;;24.61;100.00;99725.38;5048432;28;20555;-71
2022/09/29 08:55:46;;;;;;;13.80;13.10;;;;;;;23.55;100.00;99729.66;5053576;28;20029;-70
2022/09/29 08:58:15;;;;;;;15.15;14.35;;;;;;;24.29;100.00;99720.47;5053791;28;20485;-71
2022/09/29 09:01:03;;;;;;;15.00;14.20;;;;;;;23.18;100.00;99725.50;5049318;28;20064;-71
2022/09/29 09:03:38;;;;;;;14.25;13.55;;;;;;;22.91;100.00;99728.56;5053585;28;20029;-71
2022/09/29 09:06:06;;;;;;;14.98;14.18;;;;;;;23.12;100.00;99729.31;5053649;28;20033;-71
2022/09/29 09:08:52;;;;;;;14.25;13.55;;;;;;;23.23;100.00;99741.75;5040807;28;20035;-71
2022/09/29 09:11:37;;;;;;;14.10;13.40;;;;;;;23.18;100.00;99739.03;5053140;28;20029;-71
2022/09/29 09:14:18;;;;;;;14.77;13.98;;;;;;;21.95;100.00;99740.25;5053685;28;20040;-71
2022/09/29 09:16:52;;;;;;;14.23;13.52;;;;;;;23.30;100.00;99755.78;5053328;28;20017;-71
2022/09/29 09:19:45;;;;;;;14.63;13.82;;;;;;;24.07;100.00;99749.94;5052717;28;20499;-71
2022/09/29 09:22:36;;;;;;;16.10;15.10;;;;;;;22.72;100.00;99744.56;5053149;28;20131;-70
2022/09/29 09:25:34;;;;;;;15.73;14.82;;;;;;;23.48;100.00;99748.09;5045376;28;20080;-70
2022/09/29 09:28:21;;;;;;;14.90;14.10;;;;;;;24.12;100.00;99741.75;5053108;28;20028;-71
2022/09/29 09:31:06;;;;;;;16.95;15.88;;;;;;;24.66;100.00;99748.88;5051181;28;20066;-71
2022/09/29 09:33:40;;;;;;;14.35;13.63;;;;;;;25.25;100.00;99740.38;5038752;28;20028;-70
2022/09/29 09:36:09;;;;;;;;;;;;;;;25.06;100.00;99744.97;5053487;28;20036;-70
2022/09/29 09:38:44;;;;;;;13.95;13.25;;;;;;;24.59;100.00;99753.84;5052953;28;19916;-69
2022/09/29 09:41:13;;;;;;;14.40;13.60;;;;;;;24.38;100.00;99759.44;5050401;28;20033;-71
2022/09/29 09:43:47;;;;;;;13.90;13.20;;;;;;;23.91;100.00;99754.66;5051424;28;20378;-70
2022/09/29 09:46:29;;;;;;;15.23;14.38;;;;;;;24.61;100.00;99759.81;5051173;28;20082;-71
2022/09/29 09:49:18;;;;;;;14.18;13.48;;;;;;;24.90;100.00;99755.16;5047087;28;20489;-70
2022/09/29 09:52:18;;;;;;;13.85;13.15;;;;;;;24.54;100.00;99760.13;5052962;28;20025;-70
2022/09/29 09:54:50;;;;;;;14.52;13.73;;;;;;;24.55;100.00;99766.38;5041959;28;20041;-71
2022/09/29 09:57:34;;;;;;;15.60;14.70;;;;;;;24.08;100.00;99765.91;5052080;28;20132;-70
2022/09/29 10:00:22;;;;;;;15.90;14.95;;;;;;;23.27;100.00;99767.13;5059232;28;20047;-71
2022/09/29 10:02:51;;;;;;;15.20;14.30;;;;;;;24.68;100.00;99763.00;5043627;28;20040;-70
2022/09/29 10:05:19;;;;;;;14.70;13.90;;;;;;;23.31;100.00;99751.16;5051586;28;20021;-71
2022/09/29 10:07:47;;;;;;;13.85;13.15;;;;;;;23.71;100.00;99742.84;5040660;28;20029;-71
2022/09/29 10:10:20;;;;;;;14.50;13.70;;;;;;;24.18;100.00;99743.34;5049876;28;20027;-71
2022/09/29 10:12:56;;;;;;;14.90;14.10;;;;;;;24.72;100.00;99751.25;5050676;28;20029;-71
2022/09/29 10:15:49;;;;;;;14.48;13.68;;;;;;;24.12;100.00;99741.75;5051206;28;20029;-73
2022/09/29 10:18:21;;;;;;;13.90;13.20;;;;;;;24.19;100.00;99739.53;5049793;28;20099;-70
2022/09/29 10:20:47;;;;;;;13.80;13.10;;;;;;;25.51;100.00;99743.56;5050762;28;20039;-71
2022/09/29 10:23:49;;;;;;;14.70;13.90;;;;;;;24.33;100.00;99742.44;5051874;28;20104;-71
2022/09/29 10:26:19;;;;;;;15.27;14.38;;;;;;;25.29;100.00;99737.91;5051875;28;20044;-71
2022/09/29 10:28:57;;;;;;;15.05;14.25;;;;;;;24.40;100.00;99735.59;5050337;28;20448;-70
2022/09/29 10:31:32;;;;;;;14.80;14.00;;;;;;;25.03;100.00;99731.94;5041929;28;20451;-71
2022/09/29 10:34:23;;;;;;;13.85;13.15;;;;;;;25.05;100.00;99735.22;5047987;28;20033;-71
2022/09/29 10:36:56;;;;;;;13.98;13.27;;;;;;;25.40;100.00;99731.22;5046489;28;20016;-71
2022/09/29 10:39:31;;;;;;;13.77;13.07;;;;;;;25.58;100.00;99737.78;5051780;28;20033;-71
2022/09/29 10:41:57;;;;;;;14.13;13.43;;;;;;;25.05;100.00;99735.22;5051619;28;20040;-71
2022/09/29 10:44:23;;;;;;;14.00;13.30;;;;;;;25.05;100.00;99741.44;5046558;28;20017;-71
2022/09/29 10:46:54;;;;;;;13.90;13.20;;;;;;;25.21;100.00;99735.84;5051405;28;20029;-70
2022/09/29 10:49:27;;;;;;;14.93;14.13;;;;;;;25.58;100.00;99718.78;5044875;28;20061;-71
2022/09/29 10:52:05;;;;;;;14.97;14.17;;;;;;;25.22;100.00;99723.88;5045234;28;20032;-70
2022/09/29 10:54:36;;;;;;;15.30;14.40;;;;;;;25.03;100.00;99727.34;5049057;28;20029;-70
2022/09/29 10:57:14;;;;;;;13.52;12.82;;;;;;;25.06;100.00;99721.34;5050859;28;20021;-71
2022/09/29 10:59:48;;;;;;;13.93;13.23;;;;;;;25.45;96.16;99705.91;5049641;28;20028;-71
2022/09/29 11:02:31;;;;;;;13.50;12.82;;;;;;;25.58;95.59;99713.34;5051675;28;20032;-71
2022/09/29 11:05:04;;;;;;;13.65;12.95;;;;;;;25.55;94.53;99703.84;5051531;28;20094;-70
2022/09/29 11:07:31;;;;;;;13.48;12.88;;;;;;;26.27;92.53;99709.00;5050435;28;20120;-71
2022/09/29 11:09:58;;;;;;;14.27;13.52;;;;;;;25.65;95.83;99707.53;5051411;28;20063;-70
2022/09/29 11:12:28;;;;;;;14.93;14.13;;;;;;;25.67;95.35;99711.56;5046053;28;20032;-71
2022/09/29 11:14:53;;;;;;;14.45;13.68;;;;;;;25.69;95.33;99705.81;5042857;28;20024;-70
2022/09/29 11:17:28;;;;;;;13.95;13.25;;;;;;;25.02;97.16;99704.00;5051078;28;20025;-70
2022/09/29 11:20:03;;;;;;;14.65;13.85;;;;;;;25.19;98.13;99697.28;5047262;28;20036;-70
2022/09/29 11:23:03;;;;;;;14.00;13.30;;;;;;;25.08;98.34;99686.56;5038910;28;20025;-71
2022/09/29 11:25:38;;;;;;;13.88;13.18;;;;;;;25.32;98.62;99696.56;5045692;28;20033;-72
2022/09/29 11:28:03;;;;;;;14.05;13.35;;;;;;;25.33;98.10;99685.41;5051450;28;20079;-71
2022/09/29 11:30:41;;;;;;;13.98;13.27;;;;;;;25.16;100.00;99689.75;5051279;28;20032;-71